Time;durP1;ratioP1;P1;durP2;ratioP2;P2;SDS_P1;SDS_P2;PMS_P1;PMS_P2;Temp;Humidity;BMP_temperature;BMP_pressure;BME280_temperature;BME280_humidity;BME280_pressure;Samples;Min_cycle;Max_cycle;Signal;HPM_P1;HPM_P2
2022/11/24 00:01:50;;;;;;;0.13;0.13;;;;;;;7.35;100.00;100244.66;4978688;28;20125;-74
2022/11/24 00:04:15;;;;;;;0.20;0.20;;;;;;;7.65;100.00;100243.34;4979943;28;20520;-75
2022/11/24 00:06:41;;;;;;;0.10;0.10;;;;;;;7.64;100.00;100250.53;4991297;28;20034;-74
2022/11/24 00:09:06;;;;;;;0.20;0.20;;;;;;;7.44;100.00;100252.00;4996544;28;20041;-75
2022/11/24 00:11:34;;;;;;;0.20;0.20;;;;;;;7.57;100.00;100256.41;4975451;28;20037;-75
2022/11/24 00:14:00;;;;;;;0.20;0.20;;;;;;;7.29;100.00;100240.63;4995251;28;20030;-75
2022/11/24 00:16:27;;;;;;;0.20;0.20;;;;;;;7.45;100.00;100253.72;4984308;28;20061;-75
2022/11/24 00:18:54;;;;;;;0.10;0.10;;;;;;;7.27;100.00;100255.06;4979230;28;20544;-76
2022/11/24 00:21:20;;;;;;;0.20;0.20;;;;;;;7.51;100.00;100260.41;4978802;28;20092;-70
2022/11/24 00:23:47;;;;;;;0.20;0.20;;;;;;;7.24;100.00;100263.31;4984445;28;20459;-70
2022/11/24 00:26:14;;;;;;;0.10;0.10;;;;;;;7.13;100.00;100254.25;4990552;28;20049;-70
2022/11/24 00:28:40;;;;;;;0.15;0.15;;;;;;;6.97;100.00;100235.00;4973794;28;20027;-70
2022/11/24 00:31:21;;;;;;;0.17;0.17;;;;;;;7.08;100.00;100266.25;4968385;28;20042;-70
2022/11/24 00:33:48;;;;;;;0.10;0.10;;;;;;;7.11;100.00;100274.88;4989828;28;20022;-70
2022/11/24 00:36:14;;;;;;;0.20;0.20;;;;;;;7.05;100.00;100281.50;4987172;28;20030;-69
2022/11/24 00:38:40;;;;;;;0.20;0.20;;;;;;;7.07;100.00;100281.38;4989573;28;20161;-70
2022/11/24 00:41:05;;;;;;;0.20;0.20;;;;;;;7.23;100.00;100285.63;4991151;28;20468;-70
2022/11/24 00:43:31;;;;;;;0.10;0.10;;;;;;;7.11;100.00;100288.22;4978502;28;20026;-70
2022/11/24 00:45:56;;;;;;;0.20;0.20;;;;;;;7.18;100.00;100281.47;4991816;28;20062;-70
2022/11/24 00:48:22;;;;;;;0.20;0.20;;;;;;;7.15;100.00;100268.34;4999317;28;20145;-69
2022/11/24 00:50:57;;;;;;;0.10;0.10;;;;;;;7.23;100.00;100280.28;4998218;28;20022;-70
2022/11/24 00:53:23;;;;;;;0.20;0.20;;;;;;;6.97;100.00;100277.69;4998845;28;20065;-70
2022/11/24 00:55:49;;;;;;;0.13;0.13;;;;;;;7.20;100.00;100276.88;4992913;28;20058;-70
2022/11/24 00:58:14;;;;;;;0.10;0.10;;;;;;;7.16;100.00;100271.84;4987200;28;20030;-69
2022/11/24 01:00:40;;;;;;;0.10;0.10;;;;;;;6.83;100.00;100279.50;4989439;28;20083;-69
2022/11/24 01:03:05;;;;;;;0.15;0.15;;;;;;;6.86;100.00;100273.97;4981604;28;20041;-74
2022/11/24 01:05:30;;;;;;;0.20;0.20;;;;;;;7.15;100.00;100270.19;4983274;28;20041;-74
2022/11/24 01:07:56;;;;;;;0.20;0.20;;;;;;;6.98;100.00;100268.72;4979529;28;20043;-75
2022/11/24 01:10:21;;;;;;;0.10;0.10;;;;;;;6.86;100.00;100283.81;4977450;28;20092;-74
2022/11/24 01:12:47;;;;;;;0.20;0.20;;;;;;;6.99;100.00;100283.78;4977200;28;20034;-75
2022/11/24 01:15:12;;;;;;;0.20;0.20;;;;;;;6.56;100.00;100288.50;4988929;28;20196;-70
2022/11/24 01:17:37;;;;;;;0.10;0.10;;;;;;;6.65;100.00;100296.84;4989083;28;20856;-70
2022/11/24 01:20:03;;;;;;;0.10;0.10;;;;;;;6.67;100.00;100301.09;4989875;28;20037;-69
2022/11/24 01:22:29;;;;;;;0.10;0.10;;;;;;;6.62;100.00;100287.25;4997762;28;20026;-69
2022/11/24 01:24:54;;;;;;;0.10;0.10;;;;;;;6.64;100.00;100284.44;4995875;28;20088;-74
2022/11/24 01:27:20;;;;;;;0.20;0.20;;;;;;;6.67;100.00;100294.91;4989478;28;20072;-69
2022/11/24 01:29:45;;;;;;;0.20;0.20;;;;;;;6.62;100.00;100307.72;4989267;28;20026;-74
2022/11/24 01:32:10;;;;;;;0.10;0.10;;;;;;;6.50;100.00;100304.09;4982974;28;20065;-75
2022/11/24 01:34:36;;;;;;;0.20;0.20;;;;;;;6.69;100.00;100309.00;4990377;28;20053;-70
2022/11/24 01:37:01;;;;;;;0.10;0.10;;;;;;;6.50;100.00;100306.75;4994090;28;20045;-70
2022/11/24 01:39:27;;;;;;;0.20;0.20;;;;;;;6.54;100.00;100313.59;4982675;28;20408;-69
2022/11/24 01:41:52;;;;;;;0.10;0.10;;;;;;;6.61;100.00;100301.53;4981334;28;20056;-71
2022/11/24 01:44:25;;;;;;;0.10;0.10;;;;;;;6.60;100.00;100316.69;4974982;28;20118;-70
2022/11/24 01:46:57;;;;;;;0.20;0.20;;;;;;;6.50;100.00;100318.25;4985139;28;20120;-69
2022/11/24 01:49:30;;;;;;;0.17;0.17;;;;;;;6.43;100.00;100285.84;4996785;28;20037;-69
2022/11/24 01:52:02;;;;;;;0.20;0.20;;;;;;;6.38;100.00;100322.63;4974087;28;20026;-69
2022/11/24 01:54:30;;;;;;;0.20;0.20;;;;;;;6.42;100.00;100320.63;4978621;28;20122;-69
2022/11/24 01:56:59;;;;;;;0.20;0.20;;;;;;;6.65;100.00;100312.84;5002630;28;20449;-70
2022/11/24 01:59:25;;;;;;;0.20;0.20;;;;;;;6.52;100.00;100323.50;4977651;28;20030;-69
2022/11/24 02:01:51;;;;;;;0.20;0.20;;;;;;;6.31;100.00;100294.69;4976007;28;20045;-69
2022/11/24 02:04:22;;;;;;;0.20;0.20;;;;;;;6.50;100.00;100328.09;4977863;28;20023;-69
2022/11/24 02:06:49;;;;;;;0.10;0.10;;;;;;;6.59;100.00;100314.13;4976010;28;20041;-69
2022/11/24 02:09:29;;;;;;;0.10;0.10;;;;;;;6.66;100.00;100336.72;4973405;28;20053;-70
2022/11/24 02:11:56;;;;;;;0.17;0.17;;;;;;;6.79;100.00;100342.06;4984151;28;20537;-69
2022/11/24 02:14:22;;;;;;;0.20;0.20;;;;;;;6.66;100.00;100350.06;4986014;28;20034;-69
2022/11/24 02:16:49;;;;;;;0.20;0.20;;;;;;;6.79;100.00;100336.72;4983228;28;20065;-69
2022/11/24 02:19:17;;;;;;;0.10;0.10;;;;;;;6.60;100.00;100337.19;4984357;28;20026;-69
2022/11/24 02:21:42;;;;;;;0.20;0.20;;;;;;;6.55;100.00;100340.13;4979011;28;20033;-70
2022/11/24 02:24:17;;;;;;;0.20;0.20;;;;;;;6.73;100.00;100347.84;4976076;28;20026;-70
2022/11/24 02:26:43;;;;;;;;;;;;;;;6.85;100.00;100348.81;4989414;28;20034;-69
2022/11/24 02:29:10;;;;;;;0.20;0.20;;;;;;;6.95;100.00;100349.84;4975513;28;20008;-69
2022/11/24 02:31:35;;;;;;;0.13;0.13;;;;;;;6.97;100.00;100353.25;4977308;28;20034;-69
2022/11/24 02:34:00;;;;;;;0.20;0.20;;;;;;;6.87;100.00;100349.56;4975823;28;20077;-75
2022/11/24 02:36:26;;;;;;;0.20;0.20;;;;;;;6.96;100.00;100367.56;4975364;28;20476;-75
2022/11/24 02:38:51;;;;;;;0.17;0.17;;;;;;;6.94;100.00;100360.66;4975599;28;20038;-75
2022/11/24 02:41:19;;;;;;;0.15;0.15;;;;;;;6.79;100.00;100363.41;4973428;28;20031;-76
2022/11/24 02:43:48;;;;;;;0.20;0.20;;;;;;;6.74;100.00;100363.75;4979980;28;20033;-74
2022/11/24 02:46:14;;;;;;;0.20;0.20;;;;;;;7.03;100.00;100367.97;4989518;28;20189;-76
2022/11/24 02:48:39;;;;;;;0.20;0.20;;;;;;;6.75;100.00;100360.09;4979337;28;20030;-78
2022/11/24 02:51:05;;;;;;;0.20;0.20;;;;;;;6.71;100.00;100363.94;4972310;28;20026;-76
2022/11/24 02:53:30;;;;;;;0.20;0.20;;;;;;;7.02;100.00;100345.78;4975551;28;20241;-75
2022/11/24 02:55:56;;;;;;;0.20;0.20;;;;;;;6.83;100.00;100334.72;4983360;28;20026;-74
2022/11/24 02:58:21;;;;;;;0.10;0.10;;;;;;;6.77;100.00;100368.00;4981064;28;20026;-75
2022/11/24 03:00:47;;;;;;;0.20;0.20;;;;;;;6.87;100.00;100369.06;4976003;28;20088;-75
2022/11/24 03:03:12;;;;;;;0.20;0.20;;;;;;;6.60;100.00;100355.84;4974404;28;20648;-75
2022/11/24 03:05:38;;;;;;;0.20;0.20;;;;;;;6.57;100.00;100361.38;4975075;28;20034;-74
2022/11/24 03:08:03;;;;;;;0.20;0.20;;;;;;;6.33;100.00;100358.56;4974396;28;20447;-74
2022/11/24 03:10:29;;;;;;;0.10;0.10;;;;;;;6.19;100.00;100375.50;4972553;28;20041;-75
2022/11/24 03:12:54;;;;;;;0.10;0.10;;;;;;;6.40;100.00;100371.38;4983810;28;20031;-70
2022/11/24 03:15:20;;;;;;;0.15;0.15;;;;;;;6.35;100.00;100356.66;4975305;28;20018;-70
2022/11/24 03:17:46;;;;;;;0.20;0.20;;;;;;;6.30;100.00;100371.16;4976614;28;20033;-69
2022/11/24 03:20:11;;;;;;;0.20;0.20;;;;;;;6.37;100.00;100373.41;4976829;28;20030;-69
2022/11/24 03:22:37;;;;;;;0.20;0.20;;;;;;;6.32;100.00;100372.84;4971080;28;20041;-70
2022/11/24 03:25:03;;;;;;;0.20;0.20;;;;;;;6.27;100.00;100379.34;4972416;28;20046;-69
2022/11/24 03:27:29;;;;;;;0.20;0.20;;;;;;;6.51;100.00;100375.97;4975908;28;20064;-69
2022/11/24 03:29:55;;;;;;;0.17;0.17;;;;;;;6.44;100.00;100374.72;4971387;28;20400;-69
2022/11/24 03:32:20;;;;;;;0.10;0.10;;;;;;;6.67;100.00;100381.13;4973300;28;20392;-75
2022/11/24 03:34:46;;;;;;;0.15;0.15;;;;;;;6.31;100.00;100364.03;4976363;28;20026;-77
2022/11/24 03:37:11;;;;;;;0.13;0.13;;;;;;;6.48;100.00;100386.00;4973750;28;20038;-74
2022/11/24 03:39:36;;;;;;;0.20;0.20;;;;;;;6.49;100.00;100388.56;4980339;28;20034;-74
2022/11/24 03:42:02;;;;;;;0.20;0.20;;;;;;;6.40;100.00;100392.72;4987050;28;20030;-74
2022/11/24 03:44:27;;;;;;;0.20;0.20;;;;;;;6.45;100.00;100395.09;4975318;28;20096;-75
2022/11/24 03:46:53;;;;;;;0.17;0.17;;;;;;;6.34;100.00;100387.81;4974620;28;20581;-77
2022/11/24 03:49:18;;;;;;;0.20;0.20;;;;;;;6.25;100.00;100381.25;4975875;28;20044;-74
2022/11/24 03:51:43;;;;;;;0.20;0.20;;;;;;;6.49;100.00;100380.56;4973585;28;20023;-75
2022/11/24 03:54:09;;;;;;;0.20;0.20;;;;;;;6.71;100.00;100392.47;4974568;28;20040;-74
2022/11/24 03:56:34;;;;;;;0.20;0.20;;;;;;;6.41;100.00;100394.41;4971527;28;20022;-74
2022/11/24 03:59:00;;;;;;;0.20;0.20;;;;;;;6.63;100.00;100398.28;4972863;28;20038;-74
2022/11/24 04:01:25;;;;;;;0.20;0.20;;;;;;;6.55;100.00;100403.31;4974898;28;20058;-74
2022/11/24 04:03:50;;;;;;;0.20;0.20;;;;;;;6.55;100.00;100396.16;4975150;28;20552;-70
2022/11/24 04:06:16;;;;;;;0.15;0.15;;;;;;;6.50;100.00;100403.59;4982501;28;20022;-70
2022/11/24 04:08:41;;;;;;;0.15;0.15;;;;;;;6.86;100.00;100409.22;4973741;28;20026;-70
2022/11/24 04:11:07;;;;;;;0.20;0.20;;;;;;;6.82;100.00;100397.88;4977708;28;20076;-70
2022/11/24 04:13:32;;;;;;;0.20;0.20;;;;;;;7.03;100.00;100408.91;4978414;28;20030;-70
2022/11/24 04:15:57;;;;;;;0.13;0.13;;;;;;;7.01;100.00;100400.13;4975467;28;20058;-70
2022/11/24 04:18:22;;;;;;;0.10;0.10;;;;;;;6.94;100.00;100412.19;4980387;28;20040;-70
2022/11/24 04:20:49;;;;;;;0.13;0.13;;;;;;;7.25;100.00;100409.22;4977354;28;20085;-70
2022/11/24 04:23:14;;;;;;;0.20;0.20;;;;;;;6.90;100.00;100414.22;4976950;28;20528;-70
2022/11/24 04:25:41;;;;;;;0.15;0.15;;;;;;;7.01;100.00;100408.16;4977528;28;20388;-71
2022/11/24 04:28:06;;;;;;;0.20;0.20;;;;;;;7.17;100.00;100404.38;4983116;28;20042;-70
2022/11/24 04:30:32;;;;;;;0.20;0.20;;;;;;;7.03;100.00;100395.53;4975512;28;20022;-69
2022/11/24 04:32:57;;;;;;;0.20;0.20;;;;;;;7.20;100.00;100425.53;4979781;28;20034;-70
2022/11/24 04:35:23;;;;;;;0.20;0.20;;;;;;;7.24;100.00;100424.34;4979129;28;20045;-70
2022/11/24 04:37:48;;;;;;;0.20;0.20;;;;;;;7.25;100.00;100419.88;4981213;28;20709;-70
2022/11/24 04:40:14;;;;;;;0.20;0.20;;;;;;;7.09;100.00;100380.06;4983869;28;20109;-70
2022/11/24 04:42:39;;;;;;;0.20;0.20;;;;;;;7.27;100.00;100418.81;4979163;28;20062;-71
2022/11/24 04:45:06;;;;;;;0.20;0.20;;;;;;;7.32;100.00;100418.47;4978398;28;20361;-70
2022/11/24 04:47:31;;;;;;;0.10;0.10;;;;;;;7.37;100.00;100391.47;4973818;28;20084;-71
2022/11/24 04:49:57;;;;;;;0.20;0.20;;;;;;;7.34;100.00;100437.91;4973774;28;20481;-71
2022/11/24 04:52:23;;;;;;;0.10;0.10;;;;;;;7.45;100.00;100453.19;4976674;28;20042;-71
2022/11/24 04:54:48;;;;;;;0.10;0.10;;;;;;;7.46;100.00;100446.88;4978077;28;20043;-69
2022/11/24 04:57:15;;;;;;;0.10;0.10;;;;;;;7.55;100.00;100450.72;5006071;23;20053;-70
2022/11/24 04:59:41;;;;;;;0.10;0.10;;;;;;;7.22;100.00;100436.13;4991490;28;20099;-70
2022/11/24 05:02:07;;;;;;;0.10;0.10;;;;;;;7.18;100.00;100455.03;4989846;28;20495;-70
2022/11/24 05:04:32;;;;;;;0.10;0.10;;;;;;;7.05;100.00;100440.81;4985754;28;20042;-71
2022/11/24 05:06:58;;;;;;;0.10;0.10;;;;;;;7.12;100.00;100450.09;4989033;28;20484;-71
2022/11/24 05:09:23;;;;;;;0.10;0.10;;;;;;;6.99;100.00;100463.44;4993841;28;20030;-76
2022/11/24 05:11:48;;;;;;;0.10;0.10;;;;;;;6.98;100.00;100471.56;4990495;28;20145;-77
2022/11/24 05:14:14;;;;;;;0.10;0.10;;;;;;;6.96;100.00;100471.66;4993601;28;20034;-71
2022/11/24 05:16:39;;;;;;;0.10;0.10;;;;;;;6.93;100.00;100492.38;4992606;28;20054;-76
2022/11/24 05:19:04;;;;;;;0.10;0.10;;;;;;;7.09;100.00;100493.03;4992882;28;20057;-75
2022/11/24 05:21:30;;;;;;;0.10;0.10;;;;;;;7.00;100.00;100491.84;4987859;28;20437;-70
2022/11/24 05:23:55;;;;;;;0.10;0.10;;;;;;;6.84;100.00;100493.88;4987681;28;20029;-73
2022/11/24 05:26:20;;;;;;;0.10;0.10;;;;;;;6.76;100.00;100475.69;4988186;28;20125;-68
2022/11/24 05:28:46;;;;;;;0.10;0.10;;;;;;;6.64;100.00;100471.19;4984585;28;20491;-72
2022/11/24 05:31:11;;;;;;;0.10;0.10;;;;;;;6.86;100.00;100506.13;4994649;28;20398;-72
2022/11/24 05:33:37;;;;;;;0.10;0.10;;;;;;;7.00;100.00;100509.69;4995068;28;20464;-72
2022/11/24 05:36:04;;;;;;;0.10;0.10;;;;;;;7.16;100.00;100502.34;4989942;28;20089;-75
2022/11/24 05:38:30;;;;;;;0.10;0.10;;;;;;;7.10;100.00;100518.78;4977291;28;20030;-74
2022/11/24 05:41:03;;;;;;;0.10;0.10;;;;;;;7.17;100.00;100513.84;4986917;28;20030;-74
2022/11/24 05:43:28;;;;;;;0.10;0.10;;;;;;;7.15;100.00;100508.63;4988174;28;20488;-74
2022/11/24 05:45:54;;;;;;;0.10;0.10;;;;;;;7.19;100.00;100511.94;4985999;28;20411;-70
2022/11/24 05:48:19;;;;;;;0.10;0.10;;;;;;;6.86;100.00;100506.13;4989735;28;20474;-72
2022/11/24 05:50:44;;;;;;;0.10;0.10;;;;;;;7.05;100.00;100516.44;4989055;28;20045;-70
2022/11/24 05:53:11;;;;;;;0.10;0.10;;;;;;;6.92;100.00;100531.53;4992771;28;20490;-71
2022/11/24 05:55:37;;;;;;;0.10;0.10;;;;;;;7.03;100.00;100537.03;4985711;28;20049;-70
2022/11/24 05:58:05;;;;;;;0.10;0.10;;;;;;;7.00;100.00;100539.91;4965105;28;20080;-71
2022/11/24 06:00:32;;;;;;;0.10;0.10;;;;;;;7.01;100.00;100543.44;4984667;28;20419;-74
2022/11/24 06:02:58;;;;;;;0.10;0.10;;;;;;;7.11;100.00;100549.00;4968708;28;20034;-74
2022/11/24 06:05:24;;;;;;;0.05;0.05;;;;;;;7.17;100.00;100549.44;4964042;28;20474;-74
2022/11/24 06:07:49;;;;;;;0.10;0.10;;;;;;;7.15;100.00;100548.69;4968833;28;20088;-74
2022/11/24 06:10:15;;;;;;;0.10;0.10;;;;;;;7.05;100.00;100552.94;4977844;28;20476;-71
2022/11/24 06:12:41;;;;;;;0.10;0.10;;;;;;;7.12;100.00;100559.56;4983518;28;20030;-70
2022/11/24 06:15:07;;;;;;;0.10;0.10;;;;;;;6.98;100.00;100560.50;4980943;28;20068;-70
2022/11/24 06:17:32;;;;;;;0.10;0.10;;;;;;;7.09;100.00;100562.44;4979338;28;20624;-71
2022/11/24 06:19:57;;;;;;;0.10;0.10;;;;;;;7.13;100.00;100560.44;4980873;28;20030;-71
2022/11/24 06:22:23;;;;;;;0.10;0.10;;;;;;;6.98;100.00;100557.00;4983929;28;20031;-71
2022/11/24 06:24:49;;;;;;;0.10;0.10;;;;;;;7.17;100.00;100570.78;4972230;28;20039;-73
2022/11/24 06:27:14;;;;;;;0.10;0.10;;;;;;;7.16;100.00;100569.09;4983109;28;20066;-73
2022/11/24 06:29:41;;;;;;;0.10;0.10;;;;;;;7.12;100.00;100583.59;4981529;28;20055;-73
2022/11/24 06:32:07;;;;;;;0.10;0.10;;;;;;;7.15;100.00;100577.22;4971058;28;20026;-73
2022/11/24 06:34:32;;;;;;;0.10;0.10;;;;;;;7.05;100.00;100600.97;4969537;28;20050;-73
2022/11/24 06:36:58;;;;;;;0.10;0.10;;;;;;;7.12;100.00;100594.28;4967021;28;20038;-74
2022/11/24 06:39:23;;;;;;;0.10;0.10;;;;;;;7.17;100.00;100600.16;4987902;28;20451;-74
2022/11/24 06:41:49;;;;;;;0.10;0.10;;;;;;;7.26;100.00;100609.38;4974204;28;20057;-74
2022/11/24 06:44:14;;;;;;;0.15;0.15;;;;;;;7.25;100.00;100614.81;4991394;28;20042;-74
2022/11/24 06:46:40;;;;;;;0.10;0.10;;;;;;;7.24;100.00;100627.31;4970166;28;20026;-74
2022/11/24 06:49:05;;;;;;;0.10;0.10;;;;;;;7.16;100.00;100616.28;4978596;28;20034;-74
2022/11/24 06:51:30;;;;;;;0.10;0.10;;;;;;;7.41;100.00;100628.84;4984065;28;20034;-73
2022/11/24 06:53:56;;;;;;;0.10;0.10;;;;;;;7.35;100.00;100623.91;4985302;28;20033;-73
2022/11/24 06:56:21;;;;;;;0.10;0.10;;;;;;;7.23;100.00;100619.41;4981261;28;20030;-74
2022/11/24 06:58:50;;;;;;;0.10;0.10;;;;;;;7.33;100.00;100632.03;4964951;28;20033;-74
2022/11/24 07:01:25;;;;;;;0.10;0.10;;;;;;;7.32;100.00;100634.78;4978276;28;20045;-74
2022/11/24 07:03:52;;;;;;;0.10;0.10;;;;;;;7.37;100.00;100653.19;4960986;28;20030;-73
2022/11/24 07:06:18;;;;;;;0.10;0.10;;;;;;;7.41;100.00;100652.88;4978158;28;20356;-74
2022/11/24 07:08:43;;;;;;;0.10;0.10;;;;;;;7.24;100.00;100658.50;4966984;28;20062;-75
2022/11/24 07:11:11;;;;;;;0.10;0.10;;;;;;;7.40;100.00;100671.69;4978432;28;20117;-73
2022/11/24 07:13:37;;;;;;;0.10;0.10;;;;;;;7.34;100.00;100671.16;4984483;28;20037;-74
2022/11/24 07:16:15;;;;;;;0.10;0.10;;;;;;;7.42;100.00;100680.44;4983859;28;20038;-74
2022/11/24 07:18:44;;;;;;;0.10;0.10;;;;;;;7.09;100.00;100660.38;4997230;28;20042;-75
2022/11/24 07:21:09;;;;;;;0.10;0.10;;;;;;;7.28;100.00;100697.41;4963077;28;20389;-74
2022/11/24 07:23:35;;;;;;;0.15;0.15;;;;;;;7.31;100.00;100698.06;4964328;28;20038;-74
2022/11/24 07:26:02;;;;;;;0.10;0.10;;;;;;;7.22;100.00;100674.63;4979080;28;20035;-74
2022/11/24 07:28:27;;;;;;;0.10;0.10;;;;;;;7.25;100.00;100702.94;4982745;28;20458;-74
2022/11/24 07:30:53;;;;;;;0.10;0.10;;;;;;;7.25;100.00;100713.63;4980936;28;20565;-74
2022/11/24 07:33:20;;;;;;;0.10;0.10;;;;;;;7.18;100.00;100705.16;4978591;28;20038;-74
2022/11/24 07:35:45;;;;;;;0.10;0.10;;;;;;;7.22;100.00;100721.84;4984689;28;20406;-73
2022/11/24 07:38:11;;;;;;;0.10;0.10;;;;;;;7.22;100.00;100719.19;4963799;28;20026;-74
2022/11/24 07:40:36;;;;;;;0.10;0.10;;;;;;;7.15;100.00;100726.75;4983072;28;20383;-74
2022/11/24 07:43:01;;;;;;;0.10;0.10;;;;;;;7.27;100.00;100725.06;4988267;28;20034;-74
2022/11/24 07:45:27;;;;;;;0.10;0.10;;;;;;;7.13;100.00;100710.81;4990777;28;20134;-71
2022/11/24 07:47:52;;;;;;;0.10;0.10;;;;;;;7.44;100.00;100738.16;4984155;28;20081;-68
2022/11/24 07:50:19;;;;;;;0.10;0.10;;;;;;;7.13;100.00;100739.31;4979197;28;20034;-73
2022/11/24 07:52:44;;;;;;;0.10;0.10;;;;;;;7.12;100.00;100750.97;4988857;28;20099;-71
2022/11/24 07:55:10;;;;;;;0.10;0.10;;;;;;;7.15;100.00;100748.94;4994739;28;20439;-70
2022/11/24 07:57:35;;;;;;;0.10;0.10;;;;;;;7.09;100.00;100753.81;4988448;28;20908;-72
2022/11/24 08:00:01;;;;;;;0.10;0.10;;;;;;;7.25;100.00;100770.56;4987959;28;20249;-70
2022/11/24 08:02:26;;;;;;;0.10;0.10;;;;;;;7.39;100.00;100771.50;4977635;28;20622;-70
2022/11/24 08:04:51;;;;;;;0.10;0.10;;;;;;;7.16;100.00;100756.00;4994470;28;20030;-71
2022/11/24 08:07:17;;;;;;;0.10;0.10;;;;;;;7.26;100.00;100779.44;4960994;28;20400;-72
2022/11/24 08:09:42;;;;;;;0.10;0.10;;;;;;;7.47;100.00;100774.50;4971409;28;20035;-74
2022/11/24 08:12:07;;;;;;;0.10;0.10;;;;;;;7.30;100.00;100786.28;4987594;28;20077;-71
2022/11/24 08:14:33;;;;;;;0.10;0.10;;;;;;;7.28;100.00;100769.53;4984533;28;20473;-70
2022/11/24 08:16:58;;;;;;;0.10;0.10;;;;;;;7.30;100.00;100799.63;4988620;28;20467;-73
2022/11/24 08:19:23;;;;;;;0.10;0.10;;;;;;;7.14;100.00;100770.41;4984832;28;20064;-71
2022/11/24 08:21:49;;;;;;;0.10;0.10;;;;;;;7.38;100.00;100793.81;4986408;28;20033;-71
2022/11/24 08:24:15;;;;;;;0.10;0.10;;;;;;;7.50;100.00;100807.22;4968925;28;20034;-71
2022/11/24 08:26:41;;;;;;;0.10;0.10;;;;;;;7.42;100.00;100803.31;4980450;28;20092;-72
2022/11/24 08:29:06;;;;;;;0.00;0.00;;;;;;;7.27;100.00;100768.66;4960039;28;20035;-71
2022/11/24 08:31:33;;;;;;;0.10;0.10;;;;;;;7.18;100.00;100778.13;4982383;28;20037;-71
2022/11/24 08:33:58;;;;;;;0.10;0.10;;;;;;;7.30;100.00;100813.84;4968687;28;20026;-71
2022/11/24 08:36:24;;;;;;;0.10;0.10;;;;;;;7.26;100.00;100782.13;4969853;28;20026;-73
2022/11/24 08:38:54;;;;;;;0.10;0.10;;;;;;;7.41;100.00;100825.66;4983721;28;20630;-71
2022/11/24 08:41:19;;;;;;;0.10;0.10;;;;;;;7.48;100.00;100826.97;4983889;28;20023;-72
2022/11/24 08:43:44;;;;;;;0.10;0.10;;;;;;;7.64;100.00;100826.81;4986519;28;20100;-72
2022/11/24 08:46:12;;;;;;;0.10;0.10;;;;;;;7.68;100.00;100827.50;4986759;28;20117;-71
2022/11/24 08:48:38;;;;;;;0.10;0.10;;;;;;;7.85;100.00;100831.69;4966616;28;20040;-74
2022/11/24 08:51:09;;;;;;;0.10;0.10;;;;;;;7.60;100.00;100809.28;4965445;28;20030;-71
2022/11/24 08:53:34;;;;;;;0.10;0.10;;;;;;;7.80;100.00;100830.22;4964876;28;20603;-71
2022/11/24 08:55:59;;;;;;;0.10;0.10;;;;;;;7.68;100.00;100839.03;4976879;28;20049;-72
2022/11/24 08:58:25;;;;;;;0.10;0.10;;;;;;;7.91;100.00;100858.03;4975795;28;20072;-71
2022/11/24 09:00:50;;;;;;;0.10;0.10;;;;;;;8.07;100.00;100861.41;4963437;28;20456;-74
2022/11/24 09:03:16;;;;;;;0.10;0.10;;;;;;;8.32;100.00;100854.41;4980777;28;20030;-75
2022/11/24 09:05:41;;;;;;;0.10;0.10;;;;;;;8.39;100.00;100855.69;4978627;28;20452;-75
2022/11/24 09:08:06;;;;;;;0.10;0.10;;;;;;;8.74;100.00;100864.09;4982246;28;20038;-74
2022/11/24 09:10:32;;;;;;;0.20;0.20;;;;;;;8.92;100.00;100878.00;4983107;28;20387;-75
2022/11/24 09:12:57;;;;;;;0.10;0.10;;;;;;;9.04;100.00;100870.94;4977560;28;20031;-75
2022/11/24 09:15:22;;;;;;;0.10;0.10;;;;;;;8.96;100.00;100882.19;4984057;28;20415;-75
2022/11/24 09:17:47;;;;;;;0.10;0.10;;;;;;;9.14;100.00;100880.00;4978793;28;20062;-75
2022/11/24 09:20:13;;;;;;;0.10;0.10;;;;;;;9.36;100.00;100882.00;4984721;28;20038;-71
2022/11/24 09:22:40;;;;;;;0.10;0.10;;;;;;;9.56;100.00;100877.91;4989064;28;20062;-75
2022/11/24 09:25:06;;;;;;;0.10;0.10;;;;;;;9.93;100.00;100887.72;4980098;28;20848;-75
2022/11/24 09:27:31;;;;;;;0.10;0.10;;;;;;;9.88;100.00;100879.16;4982982;28;20026;-75
2022/11/24 09:29:57;;;;;;;0.10;0.10;;;;;;;10.41;100.00;100892.22;4982583;28;20551;-71
2022/11/24 09:32:22;;;;;;;0.10;0.10;;;;;;;10.83;100.00;100904.28;4980627;28;20030;-73
2022/11/24 09:34:49;;;;;;;0.17;0.17;;;;;;;11.01;100.00;100899.28;4981397;28;20026;-74
2022/11/24 09:37:14;;;;;;;0.10;0.10;;;;;;;10.97;100.00;100912.13;4988999;28;20037;-73
2022/11/24 09:39:40;;;;;;;0.10;0.10;;;;;;;11.38;100.00;100905.28;4991380;28;20400;-73
2022/11/24 09:42:16;;;;;;;0.10;0.10;;;;;;;11.15;96.44;100912.47;4984890;28;20038;-74
2022/11/24 09:44:47;;;;;;;0.10;0.10;;;;;;;11.33;94.84;100920.09;4967325;28;20030;-74
2022/11/24 09:47:25;;;;;;;0.10;0.10;;;;;;;11.50;95.96;100914.19;4966157;28;20097;-74
2022/11/24 09:49:58;;;;;;;0.10;0.10;;;;;;;11.95;94.67;100926.72;4979394;28;21750;-73
2022/11/24 09:52:39;;;;;;;0.10;0.10;;;;;;;11.69;93.71;100926.13;4970511;28;20034;-73
2022/11/24 09:55:15;;;;;;;0.10;0.10;;;;;;;11.75;91.89;100922.13;4982060;28;20531;-73
2022/11/24 09:57:42;;;;;;;0.10;0.10;;;;;;;12.22;89.20;100916.50;4955924;28;20026;-72
2022/11/24 10:00:12;;;;;;;0.10;0.10;;;;;;;12.28;89.87;100910.59;4974093;28;20499;-73
2022/11/24 10:02:37;;;;;;;0.10;0.10;;;;;;;12.27;87.81;100899.00;4967014;28;20325;-72
2022/11/24 10:05:04;;;;;;;0.10;0.10;;;;;;;12.71;85.53;100911.47;4987182;28;20042;-73
2022/11/24 10:07:36;;;;;;;0.10;0.10;;;;;;;12.79;85.06;100943.16;4961461;28;20030;-73
2022/11/24 10:10:19;;;;;;;0.10;0.10;;;;;;;12.81;83.54;100949.25;4969442;28;20207;-72
2022/11/24 10:12:58;;;;;;;0.10;0.10;;;;;;;12.98;84.27;100953.19;4970383;28;20085;-72
2022/11/24 10:15:36;;;;;;;0.10;0.10;;;;;;;12.33;86.78;100958.66;4987680;28;20093;-73
2022/11/24 10:18:25;;;;;;;0.05;0.05;;;;;;;11.86;86.74;100951.66;4967381;28;20046;-75
2022/11/24 10:21:17;;;;;;;0.10;0.10;;;;;;;13.02;83.86;100957.34;4958424;28;20382;-74
2022/11/24 10:24:21;;;;;;;0.10;0.10;;;;;;;13.76;82.55;100956.28;4960579;28;20586;-74
2022/11/24 10:26:55;;;;;;;0.20;0.20;;;;;;;14.26;77.54;100968.03;4963826;28;20464;-74
2022/11/24 10:29:29;;;;;;;0.10;0.10;;;;;;;14.53;77.39;100959.22;4964365;28;20569;-73
2022/11/24 10:31:55;;;;;;;;;;;;;;;13.97;76.35;100973.38;4967031;28;20026;-74
2022/11/24 10:34:50;;;;;;;0.10;0.10;;;;;;;13.73;78.44;100983.53;4968903;28;19924;-74
2022/11/24 10:37:27;;;;;;;0.10;0.10;;;;;;;13.84;76.55;100934.00;4976974;28;20042;-74
2022/11/24 10:40:02;;;;;;;0.10;0.10;;;;;;;14.04;77.77;100978.09;4963719;28;20480;-73
2022/11/24 10:42:35;;;;;;;0.10;0.10;;;;;;;14.21;77.14;100981.09;4984529;28;20389;-73
2022/11/24 10:45:15;;;;;;;0.10;0.10;;;;;;;14.59;75.74;100990.22;4984452;28;20385;-74
2022/11/24 10:47:41;;;;;;;0.10;0.10;;;;;;;15.45;71.38;100992.09;4966392;28;20030;-74
2022/11/24 10:50:23;;;;;;;0.10;0.10;;;;;;;15.30;69.08;100996.28;4981424;28;20477;-73
2022/11/24 10:53:16;;;;;;;0.10;0.10;;;;;;;15.94;67.84;100991.03;4975712;28;20030;-75
2022/11/24 10:55:56;;;;;;;0.10;0.10;;;;;;;15.83;66.93;100994.78;4937971;28;20376;-74
2022/11/24 10:58:36;;;;;;;0.10;0.10;;;;;;;15.91;65.39;100994.03;4977981;28;20034;-75
2022/11/24 11:01:13;;;;;;;0.10;0.10;;;;;;;16.28;63.46;100993.13;4967032;28;20026;-75
2022/11/24 11:03:46;;;;;;;0.10;0.10;;;;;;;16.19;63.54;100997.59;4974698;28;20032;-74
2022/11/24 11:06:20;;;;;;;0.10;0.10;;;;;;;15.89;64.21;100994.22;4990225;28;20066;-75
2022/11/24 11:08:45;;;;;;;0.10;0.10;;;;;;;15.97;63.60;101003.44;4980653;28;20740;-75
2022/11/24 11:11:13;;;;;;;0.10;0.10;;;;;;;15.85;63.00;100986.50;4981367;28;20042;-75
2022/11/24 11:13:50;;;;;;;0.10;0.10;;;;;;;16.55;60.93;100990.50;4979123;28;20360;-75
2022/11/24 11:16:29;;;;;;;0.10;0.10;;;;;;;16.33;61.06;100993.50;4987283;28;20041;-75
2022/11/24 11:18:54;;;;;;;0.10;0.10;;;;;;;16.68;60.95;100996.38;4986684;28;20041;-75
2022/11/24 11:21:31;;;;;;;0.10;0.10;;;;;;;16.19;62.63;100997.59;4985505;28;20041;-76
2022/11/24 11:23:57;;;;;;;0.10;0.10;;;;;;;16.11;61.24;101002.06;4987330;28;20034;-75
2022/11/24 11:26:23;;;;;;;0.10;0.10;;;;;;;16.67;59.91;101001.97;4959100;28;20034;-75
2022/11/24 11:28:59;;;;;;;0.10;0.10;;;;;;;16.77;57.78;100983.72;4984324;28;20746;-75